sensor_id;sensor_type;location;lat;lon;timestamp;P1;durP1;ratioP1;P2;durP2;ratioP2
26201;SDS011;13944;28.562;77.188;2023-05-14T00:01:17;144.82;;;78.90;;
26201;SDS011;13944;28.562;77.188;2023-05-14T00:03:44;143.88;;;78.80;;
26201;SDS011;13944;28.562;77.188;2023-05-14T00:06:10;149.55;;;80.60;;
26201;SDS011;13944;28.562;77.188;2023-05-14T00:08:37;163.25;;;81.95;;
26201;SDS011;13944;28.562;77.188;2023-05-14T00:11:03;134.55;;;80.10;;
26201;SDS011;13944;28.562;77.188;2023-05-14T00:13:30;136.93;;;80.38;;
26201;SDS011;13944;28.562;77.188;2023-05-14T00:15:56;151.40;;;80.32;;
26201;SDS011;13944;28.562;77.188;2023-05-14T00:18:23;149.95;;;82.35;;
26201;SDS011;13944;28.562;77.188;2023-05-14T00:20:50;149.10;;;83.40;;
26201;SDS011;13944;28.562;77.188;2023-05-14T00:23:22;143.23;;;79.10;;
26201;SDS011;13944;28.562;77.188;2023-05-14T00:25:49;147.98;;;79.65;;
26201;SDS011;13944;28.562;77.188;2023-05-14T00:28:15;144.35;;;81.22;;
26201;SDS011;13944;28.562;77.188;2023-05-14T00:30:42;130.85;;;76.25;;
26201;SDS011;13944;28.562;77.188;2023-05-14T00:33:08;139.90;;;78.43;;
26201;SDS011;13944;28.562;77.188;2023-05-14T00:35:35;115.05;;;74.03;;
26201;SDS011;13944;28.562;77.188;2023-05-14T00:38:02;120.75;;;74.40;;
26201;SDS011;13944;28.562;77.188;2023-05-14T00:40:28;114.85;;;73.57;;
26201;SDS011;13944;28.562;77.188;2023-05-14T00:42:55;113.82;;;71.78;;
26201;SDS011;13944;28.562;77.188;2023-05-14T00:45:21;112.10;;;71.10;;
26201;SDS011;13944;28.562;77.188;2023-05-14T00:47:48;115.50;;;71.32;;
26201;SDS011;13944;28.562;77.188;2023-05-14T00:50:15;124.70;;;73.50;;
26201;SDS011;13944;28.562;77.188;2023-05-14T00:52:42;126.70;;;71.50;;
26201;SDS011;13944;28.562;77.188;2023-05-14T00:55:08;129.77;;;71.82;;
26201;SDS011;13944;28.562;77.188;2023-05-14T00:57:37;111.82;;;69.88;;
26201;SDS011;13944;28.562;77.188;2023-05-14T01:00:04;124.53;;;71.13;;
26201;SDS011;13944;28.562;77.188;2023-05-14T01:02:31;121.70;;;71.82;;
26201;SDS011;13944;28.562;77.188;2023-05-14T01:04:57;129.20;;;72.70;;
26201;SDS011;13944;28.562;77.188;2023-05-14T01:15:47;119.38;;;70.18;;
26201;SDS011;13944;28.562;77.188;2023-05-14T01:18:15;131.05;;;72.45;;
26201;SDS011;13944;28.562;77.188;2023-05-14T01:20:44;129.32;;;71.35;;
26201;SDS011;13944;28.562;77.188;2023-05-14T01:23:10;138.93;;;74.88;;
26201;SDS011;13944;28.562;77.188;2023-05-14T01:25:37;151.57;;;75.53;;
26201;SDS011;13944;28.562;77.188;2023-05-14T01:30:56;150.70;;;76.88;;
26201;SDS011;13944;28.562;77.188;2023-05-14T01:33:23;162.40;;;80.20;;
26201;SDS011;13944;28.562;77.188;2023-05-14T01:35:51;362.40;;;93.10;;
26201;SDS011;13944;28.562;77.188;2023-05-14T01:38:18;203.07;;;81.22;;
26201;SDS011;13944;28.562;77.188;2023-05-14T01:40:45;184.48;;;76.93;;
26201;SDS011;13944;28.562;77.188;2023-05-14T01:43:12;211.07;;;81.88;;
26201;SDS011;13944;28.562;77.188;2023-05-14T01:45:39;252.25;;;86.32;;
26201;SDS011;13944;28.562;77.188;2023-05-14T01:48:06;218.32;;;81.60;;
26201;SDS011;13944;28.562;77.188;2023-05-14T01:50:33;212.67;;;84.13;;
26201;SDS011;13944;28.562;77.188;2023-05-14T01:52:59;156.32;;;78.80;;
26201;SDS011;13944;28.562;77.188;2023-05-14T01:55:26;164.73;;;77.50;;
26201;SDS011;13944;28.562;77.188;2023-05-14T01:57:53;141.15;;;77.72;;
26201;SDS011;13944;28.562;77.188;2023-05-14T02:00:20;145.38;;;77.88;;
26201;SDS011;13944;28.562;77.188;2023-05-14T02:02:47;157.02;;;80.07;;
26201;SDS011;13944;28.562;77.188;2023-05-14T02:05:13;145.30;;;80.70;;
26201;SDS011;13944;28.562;77.188;2023-05-14T02:07:40;160.35;;;79.25;;
26201;SDS011;13944;28.562;77.188;2023-05-14T02:10:07;184.85;;;81.88;;
26201;SDS011;13944;28.562;77.188;2023-05-14T02:12:33;155.38;;;80.75;;
26201;SDS011;13944;28.562;77.188;2023-05-14T02:15:00;141.07;;;78.90;;
26201;SDS011;13944;28.562;77.188;2023-05-14T02:17:27;139.07;;;73.03;;
26201;SDS011;13944;28.562;77.188;2023-05-14T02:19:53;126.18;;;74.32;;
26201;SDS011;13944;28.562;77.188;2023-05-14T02:22:20;119.05;;;73.82;;
26201;SDS011;13944;28.562;77.188;2023-05-14T02:24:46;134.20;;;74.15;;
26201;SDS011;13944;28.562;77.188;2023-05-14T02:27:13;119.97;;;69.97;;
26201;SDS011;13944;28.562;77.188;2023-05-14T02:29:40;117.05;;;69.38;;
26201;SDS011;13944;28.562;77.188;2023-05-14T02:32:06;109.93;;;65.20;;
26201;SDS011;13944;28.562;77.188;2023-05-14T02:34:33;100.53;;;65.57;;
26201;SDS011;13944;28.562;77.188;2023-05-14T02:36:59;127.50;;;70.47;;
26201;SDS011;13944;28.562;77.188;2023-05-14T02:39:26;121.50;;;74.90;;
26201;SDS011;13944;28.562;77.188;2023-05-14T02:41:52;134.02;;;77.68;;
26201;SDS011;13944;28.562;77.188;2023-05-14T02:44:19;143.63;;;86.20;;
26201;SDS011;13944;28.562;77.188;2023-05-14T02:46:46;138.38;;;88.80;;
26201;SDS011;13944;28.562;77.188;2023-05-14T02:49:12;161.05;;;90.32;;
26201;SDS011;13944;28.562;77.188;2023-05-14T02:51:39;151.60;;;92.72;;
26201;SDS011;13944;28.562;77.188;2023-05-14T02:54:05;161.02;;;91.47;;
26201;SDS011;13944;28.562;77.188;2023-05-14T02:56:32;157.48;;;93.88;;
26201;SDS011;13944;28.562;77.188;2023-05-14T02:58:58;144.65;;;89.68;;
26201;SDS011;13944;28.562;77.188;2023-05-14T03:01:25;154.38;;;93.63;;
26201;SDS011;13944;28.562;77.188;2023-05-14T03:03:51;151.63;;;90.15;;
26201;SDS011;13944;28.562;77.188;2023-05-14T03:06:18;146.32;;;88.10;;
26201;SDS011;13944;28.562;77.188;2023-05-14T03:08:44;150.60;;;91.85;;
26201;SDS011;13944;28.562;77.188;2023-05-14T03:11:11;152.80;;;89.05;;
26201;SDS011;13944;28.562;77.188;2023-05-14T03:13:37;148.18;;;91.32;;
26201;SDS011;13944;28.562;77.188;2023-05-14T03:16:04;155.75;;;89.28;;
26201;SDS011;13944;28.562;77.188;2023-05-14T03:18:30;147.60;;;91.40;;
26201;SDS011;13944;28.562;77.188;2023-05-14T03:20:58;148.18;;;86.82;;
26201;SDS011;13944;28.562;77.188;2023-05-14T03:23:25;140.43;;;90.15;;
26201;SDS011;13944;28.562;77.188;2023-05-14T03:25:52;141.52;;;88.43;;
26201;SDS011;13944;28.562;77.188;2023-05-14T03:28:18;139.23;;;84.63;;
26201;SDS011;13944;28.562;77.188;2023-05-14T03:30:45;137.10;;;85.07;;
26201;SDS011;13944;28.562;77.188;2023-05-14T03:33:11;134.65;;;84.38;;
26201;SDS011;13944;28.562;77.188;2023-05-14T03:35:38;131.32;;;82.93;;
26201;SDS011;13944;28.562;77.188;2023-05-14T03:38:04;124.53;;;80.47;;
26201;SDS011;13944;28.562;77.188;2023-05-14T03:40:31;125.45;;;77.93;;
26201;SDS011;13944;28.562;77.188;2023-05-14T03:42:58;116.90;;;77.40;;
26201;SDS011;13944;28.562;77.188;2023-05-14T03:45:24;107.28;;;74.88;;
26201;SDS011;13944;28.562;77.188;2023-05-14T03:47:52;112.43;;;76.13;;
26201;SDS011;13944;28.562;77.188;2023-05-14T03:50:19;117.93;;;75.22;;
26201;SDS011;13944;28.562;77.188;2023-05-14T03:52:45;122.22;;;79.90;;
26201;SDS011;13944;28.562;77.188;2023-05-14T03:55:12;114.88;;;74.38;;
26201;SDS011;13944;28.562;77.188;2023-05-14T03:57:39;118.80;;;75.50;;
26201;SDS011;13944;28.562;77.188;2023-05-14T04:00:05;116.10;;;72.55;;
26201;SDS011;13944;28.562;77.188;2023-05-14T04:02:32;114.25;;;72.50;;
26201;SDS011;13944;28.562;77.188;2023-05-14T04:04:59;114.78;;;72.05;;
26201;SDS011;13944;28.562;77.188;2023-05-14T04:07:25;104.93;;;70.82;;
26201;SDS011;13944;28.562;77.188;2023-05-14T04:09:51;97.20;;;69.45;;
26201;SDS011;13944;28.562;77.188;2023-05-14T04:12:18;97.05;;;66.22;;
26201;SDS011;13944;28.562;77.188;2023-05-14T04:14:44;98.07;;;66.22;;
26201;SDS011;13944;28.562;77.188;2023-05-14T04:17:11;97.43;;;65.55;;
26201;SDS011;13944;28.562;77.188;2023-05-14T04:19:37;102.03;;;65.22;;
26201;SDS011;13944;28.562;77.188;2023-05-14T04:22:04;98.95;;;64.40;;
26201;SDS011;13944;28.562;77.188;2023-05-14T04:24:31;106.68;;;66.60;;
26201;SDS011;13944;28.562;77.188;2023-05-14T04:26:57;107.50;;;67.05;;
26201;SDS011;13944;28.562;77.188;2023-05-14T04:29:24;102.30;;;67.05;;
26201;SDS011;13944;28.562;77.188;2023-05-14T04:31:50;103.05;;;67.97;;
26201;SDS011;13944;28.562;77.188;2023-05-14T04:34:17;99.90;;;70.28;;
26201;SDS011;13944;28.562;77.188;2023-05-14T04:36:43;105.95;;;69.85;;
26201;SDS011;13944;28.562;77.188;2023-05-14T04:39:10;110.65;;;71.18;;
26201;SDS011;13944;28.562;77.188;2023-05-14T04:41:39;102.55;;;68.68;;
26201;SDS011;13944;28.562;77.188;2023-05-14T04:44:06;97.70;;;68.50;;
26201;SDS011;13944;28.562;77.188;2023-05-14T04:46:33;100.10;;;69.13;;
26201;SDS011;13944;28.562;77.188;2023-05-14T04:48:59;92.95;;;67.03;;
26201;SDS011;13944;28.562;77.188;2023-05-14T04:51:28;100.88;;;67.68;;
26201;SDS011;13944;28.562;77.188;2023-05-14T04:53:55;93.72;;;67.55;;
26201;SDS011;13944;28.562;77.188;2023-05-14T04:56:22;94.38;;;67.25;;
26201;SDS011;13944;28.562;77.188;2023-05-14T04:58:48;110.07;;;66.97;;
26201;SDS011;13944;28.562;77.188;2023-05-14T05:01:15;92.55;;;64.22;;
26201;SDS011;13944;28.562;77.188;2023-05-14T05:03:41;98.30;;;66.63;;
26201;SDS011;13944;28.562;77.188;2023-05-14T05:06:08;95.57;;;66.13;;
26201;SDS011;13944;28.562;77.188;2023-05-14T05:08:35;94.35;;;65.30;;
26201;SDS011;13944;28.562;77.188;2023-05-14T05:11:02;91.55;;;64.63;;
26201;SDS011;13944;28.562;77.188;2023-05-14T05:13:28;90.22;;;63.13;;
26201;SDS011;13944;28.562;77.188;2023-05-14T05:15:56;95.75;;;61.70;;
26201;SDS011;13944;28.562;77.188;2023-05-14T05:18:23;102.07;;;62.30;;
26201;SDS011;13944;28.562;77.188;2023-05-14T05:20:49;89.32;;;61.28;;
26201;SDS011;13944;28.562;77.188;2023-05-14T05:23:16;99.78;;;64.13;;
26201;SDS011;13944;28.562;77.188;2023-05-14T05:25:42;103.75;;;63.15;;
26201;SDS011;13944;28.562;77.188;2023-05-14T05:28:09;87.70;;;61.13;;
26201;SDS011;13944;28.562;77.188;2023-05-14T05:30:35;85.40;;;60.58;;
26201;SDS011;13944;28.562;77.188;2023-05-14T05:33:02;92.55;;;59.63;;
26201;SDS011;13944;28.562;77.188;2023-05-14T05:35:28;95.95;;;60.05;;
26201;SDS011;13944;28.562;77.188;2023-05-14T05:37:56;89.65;;;57.85;;
26201;SDS011;13944;28.562;77.188;2023-05-14T05:40:22;89.22;;;58.35;;
26201;SDS011;13944;28.562;77.188;2023-05-14T05:42:49;84.75;;;55.55;;
26201;SDS011;13944;28.562;77.188;2023-05-14T05:45:15;76.93;;;53.05;;
26201;SDS011;13944;28.562;77.188;2023-05-14T05:47:42;82.18;;;55.20;;
26201;SDS011;13944;28.562;77.188;2023-05-14T05:50:08;77.47;;;50.90;;
26201;SDS011;13944;28.562;77.188;2023-05-14T05:52:35;76.95;;;50.17;;
26201;SDS011;13944;28.562;77.188;2023-05-14T05:55:01;75.18;;;48.78;;
26201;SDS011;13944;28.562;77.188;2023-05-14T05:57:28;69.93;;;48.65;;
26201;SDS011;13944;28.562;77.188;2023-05-14T05:59:57;74.30;;;49.88;;
26201;SDS011;13944;28.562;77.188;2023-05-14T06:02:24;76.47;;;50.83;;
26201;SDS011;13944;28.562;77.188;2023-05-14T06:04:50;74.32;;;49.88;;
26201;SDS011;13944;28.562;77.188;2023-05-14T06:07:17;74.93;;;49.13;;
26201;SDS011;13944;28.562;77.188;2023-05-14T06:09:44;85.55;;;48.83;;
26201;SDS011;13944;28.562;77.188;2023-05-14T06:12:10;74.10;;;47.53;;
26201;SDS011;13944;28.562;77.188;2023-05-14T06:14:37;73.82;;;48.53;;
26201;SDS011;13944;28.562;77.188;2023-05-14T06:17:03;72.88;;;46.80;;
26201;SDS011;13944;28.562;77.188;2023-05-14T06:19:30;68.80;;;45.85;;
26201;SDS011;13944;28.562;77.188;2023-05-14T06:21:56;67.28;;;44.80;;
26201;SDS011;13944;28.562;77.188;2023-05-14T06:24:23;69.32;;;45.50;;
26201;SDS011;13944;28.562;77.188;2023-05-14T06:26:49;63.25;;;45.67;;
26201;SDS011;13944;28.562;77.188;2023-05-14T06:29:19;74.00;;;44.78;;
26201;SDS011;13944;28.562;77.188;2023-05-14T06:31:45;66.30;;;45.08;;
26201;SDS011;13944;28.562;77.188;2023-05-14T06:34:12;62.40;;;42.92;;
26201;SDS011;13944;28.562;77.188;2023-05-14T06:36:39;66.95;;;43.58;;
26201;SDS011;13944;28.562;77.188;2023-05-14T06:39:05;64.55;;;44.95;;
26201;SDS011;13944;28.562;77.188;2023-05-14T06:41:32;61.25;;;44.42;;
26201;SDS011;13944;28.562;77.188;2023-05-14T06:43:58;70.43;;;45.88;;
26201;SDS011;13944;28.562;77.188;2023-05-14T06:46:25;64.97;;;46.10;;
26201;SDS011;13944;28.562;77.188;2023-05-14T06:48:51;64.78;;;45.45;;
26201;SDS011;13944;28.562;77.188;2023-05-14T06:51:18;66.93;;;44.72;;
26201;SDS011;13944;28.562;77.188;2023-05-14T06:53:44;66.70;;;43.53;;
26201;SDS011;13944;28.562;77.188;2023-05-14T06:56:13;65.88;;;43.90;;
26201;SDS011;13944;28.562;77.188;2023-05-14T06:58:39;70.35;;;44.72;;
26201;SDS011;13944;28.562;77.188;2023-05-14T07:01:06;78.75;;;45.53;;
26201;SDS011;13944;28.562;77.188;2023-05-14T07:03:32;63.30;;;41.92;;
26201;SDS011;13944;28.562;77.188;2023-05-14T07:05:59;65.85;;;42.47;;
26201;SDS011;13944;28.562;77.188;2023-05-14T07:08:25;61.88;;;42.22;;
26201;SDS011;13944;28.562;77.188;2023-05-14T07:10:51;62.28;;;42.13;;
26201;SDS011;13944;28.562;77.188;2023-05-14T07:13:18;58.05;;;41.58;;
26201;SDS011;13944;28.562;77.188;2023-05-14T07:15:45;55.65;;;42.28;;
26201;SDS011;13944;28.562;77.188;2023-05-14T07:18:11;61.88;;;42.38;;
26201;SDS011;13944;28.562;77.188;2023-05-14T07:20:37;64.75;;;44.13;;
26201;SDS011;13944;28.562;77.188;2023-05-14T07:23:04;59.22;;;41.08;;
26201;SDS011;13944;28.562;77.188;2023-05-14T07:25:31;63.90;;;42.30;;
26201;SDS011;13944;28.562;77.188;2023-05-14T07:27:57;66.60;;;41.72;;
26201;SDS011;13944;28.562;77.188;2023-05-14T07:30:24;56.15;;;41.83;;
26201;SDS011;13944;28.562;77.188;2023-05-14T07:32:50;61.70;;;41.90;;
26201;SDS011;13944;28.562;77.188;2023-05-14T07:35:17;60.00;;;42.10;;
26201;SDS011;13944;28.562;77.188;2023-05-14T07:37:43;64.57;;;42.92;;
26201;SDS011;13944;28.562;77.188;2023-05-14T07:40:10;64.50;;;42.45;;
26201;SDS011;13944;28.562;77.188;2023-05-14T07:42:36;63.35;;;42.05;;
26201;SDS011;13944;28.562;77.188;2023-05-14T07:45:03;66.68;;;42.38;;
26201;SDS011;13944;28.562;77.188;2023-05-14T07:47:30;61.65;;;41.70;;
26201;SDS011;13944;28.562;77.188;2023-05-14T07:49:57;62.38;;;42.75;;
26201;SDS011;13944;28.562;77.188;2023-05-14T07:52:23;62.05;;;40.72;;
26201;SDS011;13944;28.562;77.188;2023-05-14T07:54:50;61.10;;;41.83;;
26201;SDS011;13944;28.562;77.188;2023-05-14T07:57:17;62.95;;;40.50;;
26201;SDS011;13944;28.562;77.188;2023-05-14T07:59:44;63.03;;;40.67;;
26201;SDS011;13944;28.562;77.188;2023-05-14T08:02:10;58.72;;;40.75;;
26201;SDS011;13944;28.562;77.188;2023-05-14T08:04:37;57.33;;;40.97;;
26201;SDS011;13944;28.562;77.188;2023-05-14T08:07:04;56.65;;;39.15;;
26201;SDS011;13944;28.562;77.188;2023-05-14T08:09:32;57.95;;;40.42;;
26201;SDS011;13944;28.562;77.188;2023-05-14T08:11:58;60.53;;;41.50;;
26201;SDS011;13944;28.562;77.188;2023-05-14T08:14:25;60.83;;;41.05;;
26201;SDS011;13944;28.562;77.188;2023-05-14T08:16:52;67.45;;;41.30;;
26201;SDS011;13944;28.562;77.188;2023-05-14T08:19:19;64.63;;;41.63;;
26201;SDS011;13944;28.562;77.188;2023-05-14T08:21:45;63.70;;;40.97;;
26201;SDS011;13944;28.562;77.188;2023-05-14T08:24:12;58.47;;;40.63;;
26201;SDS011;13944;28.562;77.188;2023-05-14T08:26:39;66.72;;;41.30;;
26201;SDS011;13944;28.562;77.188;2023-05-14T08:29:06;58.25;;;39.97;;
26201;SDS011;13944;28.562;77.188;2023-05-14T08:31:32;59.97;;;40.90;;
26201;SDS011;13944;28.562;77.188;2023-05-14T08:33:59;61.83;;;42.38;;
26201;SDS011;13944;28.562;77.188;2023-05-14T08:36:25;60.83;;;40.65;;
26201;SDS011;13944;28.562;77.188;2023-05-14T08:38:52;57.65;;;39.58;;
26201;SDS011;13944;28.562;77.188;2023-05-14T08:41:18;61.10;;;39.85;;
26201;SDS011;13944;28.562;77.188;2023-05-14T08:43:50;54.47;;;39.17;;
26201;SDS011;13944;28.562;77.188;2023-05-14T08:46:23;57.80;;;38.50;;
26201;SDS011;13944;28.562;77.188;2023-05-14T08:48:51;62.70;;;38.55;;
26201;SDS011;13944;28.562;77.188;2023-05-14T08:51:20;60.53;;;37.28;;
26201;SDS011;13944;28.562;77.188;2023-05-14T08:53:47;58.00;;;38.55;;
26201;SDS011;13944;28.562;77.188;2023-05-14T08:56:13;54.50;;;36.50;;
26201;SDS011;13944;28.562;77.188;2023-05-14T08:58:41;58.08;;;36.30;;
26201;SDS011;13944;28.562;77.188;2023-05-14T09:01:08;55.05;;;36.90;;
26201;SDS011;13944;28.562;77.188;2023-05-14T09:03:35;52.95;;;35.53;;
26201;SDS011;13944;28.562;77.188;2023-05-14T09:06:02;58.42;;;36.13;;
26201;SDS011;13944;28.562;77.188;2023-05-14T09:08:29;51.47;;;35.10;;
26201;SDS011;13944;28.562;77.188;2023-05-14T09:10:56;58.13;;;35.95;;
26201;SDS011;13944;28.562;77.188;2023-05-14T09:13:22;54.55;;;36.13;;
26201;SDS011;13944;28.562;77.188;2023-05-14T09:15:49;58.03;;;35.72;;
26201;SDS011;13944;28.562;77.188;2023-05-14T09:18:16;60.58;;;34.92;;
26201;SDS011;13944;28.562;77.188;2023-05-14T09:20:42;58.53;;;35.35;;
26201;SDS011;13944;28.562;77.188;2023-05-14T09:23:09;59.92;;;35.65;;
26201;SDS011;13944;28.562;77.188;2023-05-14T09:25:35;60.90;;;35.22;;
26201;SDS011;13944;28.562;77.188;2023-05-14T09:28:04;51.88;;;34.92;;
26201;SDS011;13944;28.562;77.188;2023-05-14T09:30:34;54.50;;;32.88;;
26201;SDS011;13944;28.562;77.188;2023-05-14T09:33:01;57.20;;;33.97;;
26201;SDS011;13944;28.562;77.188;2023-05-14T09:35:28;53.83;;;33.92;;
26201;SDS011;13944;28.562;77.188;2023-05-14T09:37:56;64.88;;;35.50;;
26201;SDS011;13944;28.562;77.188;2023-05-14T09:40:23;63.30;;;33.88;;
26201;SDS011;13944;28.562;77.188;2023-05-14T09:42:49;56.03;;;32.47;;
26201;SDS011;13944;28.562;77.188;2023-05-14T09:45:16;56.65;;;32.50;;
26201;SDS011;13944;28.562;77.188;2023-05-14T09:47:42;54.90;;;32.88;;
26201;SDS011;13944;28.562;77.188;2023-05-14T09:50:09;62.30;;;33.28;;
26201;SDS011;13944;28.562;77.188;2023-05-14T09:52:37;51.65;;;31.83;;
26201;SDS011;13944;28.562;77.188;2023-05-14T09:55:03;53.42;;;31.77;;
26201;SDS011;13944;28.562;77.188;2023-05-14T09:57:30;49.33;;;31.40;;
26201;SDS011;13944;28.562;77.188;2023-05-14T09:59:57;53.95;;;31.27;;
26201;SDS011;13944;28.562;77.188;2023-05-14T10:02:25;53.42;;;30.48;;
26201;SDS011;13944;28.562;77.188;2023-05-14T10:04:53;58.78;;;30.00;;
26201;SDS011;13944;28.562;77.188;2023-05-14T10:07:24;55.90;;;29.70;;
26201;SDS011;13944;28.562;77.188;2023-05-14T10:09:53;52.33;;;27.77;;
26201;SDS011;13944;28.562;77.188;2023-05-14T10:12:22;50.10;;;25.80;;
26201;SDS011;13944;28.562;77.188;2023-05-14T10:14:49;49.42;;;26.05;;
26201;SDS011;13944;28.562;77.188;2023-05-14T10:17:21;52.25;;;25.95;;
26201;SDS011;13944;28.562;77.188;2023-05-14T10:19:51;47.97;;;26.52;;
26201;SDS011;13944;28.562;77.188;2023-05-14T10:22:21;48.38;;;26.35;;
26201;SDS011;13944;28.562;77.188;2023-05-14T10:24:48;49.55;;;25.08;;
26201;SDS011;13944;28.562;77.188;2023-05-14T10:27:19;46.55;;;24.17;;
26201;SDS011;13944;28.562;77.188;2023-05-14T10:29:50;43.47;;;23.63;;
26201;SDS011;13944;28.562;77.188;2023-05-14T10:32:23;43.88;;;23.20;;
26201;SDS011;13944;28.562;77.188;2023-05-14T10:34:53;44.92;;;23.75;;
26201;SDS011;13944;28.562;77.188;2023-05-14T10:37:21;44.40;;;24.48;;
26201;SDS011;13944;28.562;77.188;2023-05-14T10:40:22;47.72;;;24.52;;
26201;SDS011;13944;28.562;77.188;2023-05-14T10:42:42;45.70;;;24.70;;
26201;SDS011;13944;28.562;77.188;2023-05-14T10:45:10;49.70;;;25.50;;
26201;SDS011;13944;28.562;77.188;2023-05-14T10:47:37;49.33;;;25.55;;
26201;SDS011;13944;28.562;77.188;2023-05-14T10:50:05;49.53;;;25.02;;
26201;SDS011;13944;28.562;77.188;2023-05-14T10:52:32;53.90;;;26.58;;
26201;SDS011;13944;28.562;77.188;2023-05-14T10:55:03;38.92;;;24.25;;
26201;SDS011;13944;28.562;77.188;2023-05-14T10:57:34;50.92;;;24.40;;
26201;SDS011;13944;28.562;77.188;2023-05-14T11:00:01;50.92;;;26.25;;
26201;SDS011;13944;28.562;77.188;2023-05-14T11:02:38;49.97;;;25.02;;
26201;SDS011;13944;28.562;77.188;2023-05-14T11:07:39;48.25;;;23.73;;
26201;SDS011;13944;28.562;77.188;2023-05-14T11:12:36;47.15;;;22.77;;
26201;SDS011;13944;28.562;77.188;2023-05-14T11:15:06;54.92;;;24.05;;
26201;SDS011;13944;28.562;77.188;2023-05-14T11:17:34;46.88;;;24.00;;
26201;SDS011;13944;28.562;77.188;2023-05-14T11:20:01;42.20;;;23.40;;
26201;SDS011;13944;28.562;77.188;2023-05-14T11:22:29;49.50;;;24.70;;
26201;SDS011;13944;28.562;77.188;2023-05-14T11:24:56;43.35;;;22.40;;
26201;SDS011;13944;28.562;77.188;2023-05-14T11:27:22;44.85;;;22.80;;
26201;SDS011;13944;28.562;77.188;2023-05-14T11:29:50;45.92;;;23.35;;
26201;SDS011;13944;28.562;77.188;2023-05-14T11:32:17;44.15;;;23.80;;
26201;SDS011;13944;28.562;77.188;2023-05-14T11:34:44;42.13;;;23.88;;
26201;SDS011;13944;28.562;77.188;2023-05-14T11:37:11;41.22;;;23.52;;
26201;SDS011;13944;28.562;77.188;2023-05-14T11:39:38;45.88;;;23.33;;
26201;SDS011;13944;28.562;77.188;2023-05-14T11:42:09;50.88;;;24.88;;
26201;SDS011;13944;28.562;77.188;2023-05-14T11:44:41;50.95;;;24.52;;
26201;SDS011;13944;28.562;77.188;2023-05-14T11:47:11;46.67;;;24.27;;
26201;SDS011;13944;28.562;77.188;2023-05-14T11:49:37;42.72;;;25.27;;
26201;SDS011;13944;28.562;77.188;2023-05-14T11:52:05;45.17;;;23.85;;
26201;SDS011;13944;28.562;77.188;2023-05-14T11:54:32;50.40;;;24.38;;
26201;SDS011;13944;28.562;77.188;2023-05-14T11:57:00;41.90;;;24.42;;
26201;SDS011;13944;28.562;77.188;2023-05-14T11:59:27;49.05;;;24.73;;
26201;SDS011;13944;28.562;77.188;2023-05-14T12:01:57;47.92;;;23.48;;
26201;SDS011;13944;28.562;77.188;2023-05-14T12:04:24;50.88;;;25.10;;
26201;SDS011;13944;28.562;77.188;2023-05-14T12:06:51;50.97;;;25.02;;
26201;SDS011;13944;28.562;77.188;2023-05-14T12:09:17;40.28;;;24.42;;
26201;SDS011;13944;28.562;77.188;2023-05-14T12:11:44;49.97;;;25.55;;
26201;SDS011;13944;28.562;77.188;2023-05-14T12:14:13;58.78;;;30.63;;
26201;SDS011;13944;28.562;77.188;2023-05-14T12:16:40;58.80;;;30.08;;
26201;SDS011;13944;28.562;77.188;2023-05-14T12:19:07;59.55;;;30.55;;
26201;SDS011;13944;28.562;77.188;2023-05-14T12:21:36;58.50;;;29.30;;
26201;SDS011;13944;28.562;77.188;2023-05-14T12:24:02;54.53;;;27.98;;
26201;SDS011;13944;28.562;77.188;2023-05-14T12:26:32;51.00;;;27.75;;
26201;SDS011;13944;28.562;77.188;2023-05-14T12:28:59;51.15;;;26.80;;
26201;SDS011;13944;28.562;77.188;2023-05-14T12:31:26;50.45;;;27.02;;
26201;SDS011;13944;28.562;77.188;2023-05-14T12:33:53;56.95;;;27.67;;
26201;SDS011;13944;28.562;77.188;2023-05-14T12:36:20;59.28;;;27.75;;
26201;SDS011;13944;28.562;77.188;2023-05-14T12:38:47;50.97;;;27.45;;
26201;SDS011;13944;28.562;77.188;2023-05-14T12:41:13;49.70;;;27.35;;
26201;SDS011;13944;28.562;77.188;2023-05-14T12:43:43;56.65;;;27.05;;
26201;SDS011;13944;28.562;77.188;2023-05-14T12:46:10;50.42;;;27.70;;
26201;SDS011;13944;28.562;77.188;2023-05-14T12:48:36;50.55;;;28.38;;
26201;SDS011;13944;28.562;77.188;2023-05-14T12:51:03;50.47;;;27.80;;
26201;SDS011;13944;28.562;77.188;2023-05-14T12:53:30;48.25;;;26.95;;
26201;SDS011;13944;28.562;77.188;2023-05-14T12:55:56;61.05;;;28.98;;
26201;SDS011;13944;28.562;77.188;2023-05-14T12:58:23;53.67;;;28.73;;
26201;SDS011;13944;28.562;77.188;2023-05-14T13:00:49;52.53;;;28.67;;
26201;SDS011;13944;28.562;77.188;2023-05-14T13:03:16;52.15;;;28.60;;
26201;SDS011;13944;28.562;77.188;2023-05-14T13:05:42;58.25;;;28.88;;
26201;SDS011;13944;28.562;77.188;2023-05-14T13:08:09;52.03;;;28.98;;
26201;SDS011;13944;28.562;77.188;2023-05-14T13:10:39;50.42;;;29.13;;
26201;SDS011;13944;28.562;77.188;2023-05-14T13:13:05;51.15;;;29.13;;
26201;SDS011;13944;28.562;77.188;2023-05-14T13:15:32;56.45;;;30.23;;
26201;SDS011;13944;28.562;77.188;2023-05-14T13:17:58;61.40;;;30.25;;
26201;SDS011;13944;28.562;77.188;2023-05-14T13:20:25;54.13;;;29.90;;
26201;SDS011;13944;28.562;77.188;2023-05-14T13:22:52;58.58;;;30.00;;
26201;SDS011;13944;28.562;77.188;2023-05-14T13:25:18;64.20;;;31.38;;
26201;SDS011;13944;28.562;77.188;2023-05-14T13:27:45;60.75;;;30.55;;
26201;SDS011;13944;28.562;77.188;2023-05-14T13:30:11;67.38;;;32.83;;
26201;SDS011;13944;28.562;77.188;2023-05-14T13:32:38;65.00;;;31.15;;
26201;SDS011;13944;28.562;77.188;2023-05-14T13:35:05;64.88;;;31.05;;
26201;SDS011;13944;28.562;77.188;2023-05-14T13:37:32;57.92;;;31.48;;
26201;SDS011;13944;28.562;77.188;2023-05-14T13:39:58;59.40;;;32.00;;
26201;SDS011;13944;28.562;77.188;2023-05-14T13:42:24;70.78;;;32.92;;
26201;SDS011;13944;28.562;77.188;2023-05-14T13:44:51;80.38;;;33.33;;
26201;SDS011;13944;28.562;77.188;2023-05-14T13:47:18;76.90;;;32.53;;
26201;SDS011;13944;28.562;77.188;2023-05-14T13:49:44;79.95;;;39.60;;
26201;SDS011;13944;28.562;77.188;2023-05-14T13:52:10;76.97;;;29.40;;
26201;SDS011;13944;28.562;77.188;2023-05-14T13:54:37;90.05;;;24.00;;
26201;SDS011;13944;28.562;77.188;2023-05-14T13:57:04;61.92;;;23.05;;
26201;SDS011;13944;28.562;77.188;2023-05-14T13:59:30;73.10;;;21.52;;
26201;SDS011;13944;28.562;77.188;2023-05-14T14:01:57;66.80;;;18.60;;
26201;SDS011;13944;28.562;77.188;2023-05-14T14:04:23;75.13;;;17.30;;
26201;SDS011;13944;28.562;77.188;2023-05-14T14:06:56;66.40;;;15.32;;
26201;SDS011;13944;28.562;77.188;2023-05-14T14:09:22;58.63;;;15.45;;
26201;SDS011;13944;28.562;77.188;2023-05-14T14:11:49;57.88;;;14.70;;
26201;SDS011;13944;28.562;77.188;2023-05-14T14:14:16;64.38;;;15.40;;
26201;SDS011;13944;28.562;77.188;2023-05-14T14:16:43;64.25;;;14.50;;
26201;SDS011;13944;28.562;77.188;2023-05-14T14:19:09;53.72;;;14.20;;
26201;SDS011;13944;28.562;77.188;2023-05-14T14:21:36;65.43;;;14.88;;